Time;durP1;ratioP1;P1;durP2;ratioP2;P2;SDS_P1;SDS_P2;PMS_P1;PMS_P2;Temp;Humidity;BMP_temperature;BMP_pressure;BME280_temperature;BME280_humidity;BME280_pressure;Samples;Min_cycle;Max_cycle;Signal;HPM_P1;HPM_P2
2022/11/13 00:00:19;;;;;;;128.37;64.97;;;6.00;99.90;;;;;;8279518;28;20207;-72
2022/11/13 00:04:20;;;;;;;128.40;68.13;;;6.00;99.90;;;;;;8282350;28;20187;-70
2022/11/13 00:08:21;;;;;;;135.70;71.70;;;6.10;99.90;;;;;;8281153;28;20195;-70
2022/11/13 00:12:21;;;;;;;143.13;76.37;;;6.10;99.90;;;;;;8279200;28;20233;-71
2022/11/13 00:16:22;;;;;;;133.07;69.60;;;6.10;99.90;;;;;;8280473;28;20213;-70
2022/11/13 00:20:23;;;;;;;113.60;63.10;;;6.20;99.90;;;;;;8280422;28;20184;-69
2022/11/13 00:24:24;;;;;;;121.87;61.07;;;6.30;99.90;;;;;;8280509;28;20183;-71
2022/11/13 00:28:25;;;;;;;99.03;52.47;;;6.30;99.90;;;;;;8281540;28;20183;-71
2022/11/13 00:32:25;;;;;;;52.80;30.77;;;6.40;99.90;;;;;;8281123;28;20195;-71
2022/11/13 00:36:27;;;;;;;33.90;21.70;;;6.60;99.90;;;;;;8279912;28;20234;-73
2022/11/13 00:40:28;;;;;;;30.33;20.33;;;6.80;99.90;;;;;;8279215;28;20188;-70
2022/11/13 00:44:29;;;;;;;28.30;18.50;;;6.90;99.90;;;;;;8310581;28;20197;-71
2022/11/13 00:48:30;;;;;;;33.83;20.57;;;7.10;99.90;;;;;;8280758;28;20191;-71
2022/11/13 00:52:30;;;;;;;33.63;21.67;;;7.20;99.90;;;;;;8279453;28;20193;-71
2022/11/13 00:56:31;;;;;;;35.60;22.27;;;7.30;99.90;;;;;;8276884;28;20214;-71
2022/11/13 01:00:32;;;;;;;30.30;21.70;;;7.40;99.90;;;;;;8280660;28;20188;-70
2022/11/13 01:04:33;;;;;;;32.97;21.00;;;7.50;99.90;;;;;;8283312;28;20187;-71
2022/11/13 01:08:34;;;;;;;28.87;20.10;;;7.60;99.90;;;;;;8286587;28;20218;-70
2022/11/13 01:12:35;;;;;;;38.10;23.37;;;7.60;99.90;;;;;;8286138;28;20187;-71
2022/11/13 01:16:36;;;;;;;43.93;25.60;;;7.70;99.90;;;;;;8286626;28;20215;-72
2022/11/13 01:20:37;;;;;;;34.80;20.33;;;7.70;99.90;;;;;;8319042;28;20274;-71
2022/11/13 01:24:38;;;;;;;32.37;21.80;;;7.70;99.90;;;;;;8299701;28;20215;-71
2022/11/13 01:28:40;;;;;;;29.40;20.57;;;7.70;99.90;;;;;;8288575;28;20187;-72
2022/11/13 01:32:40;;;;;;;28.70;20.07;;;7.80;99.90;;;;;;8286170;28;20187;-72
2022/11/13 01:36:41;;;;;;;34.63;20.73;;;7.70;99.90;;;;;;8285449;28;20610;-71
2022/11/13 01:40:46;;;;;;;31.17;20.87;;;7.80;99.90;;;;;;8284814;28;20187;-71
2022/11/13 01:44:56;;;;;;;28.00;20.20;;;7.80;99.90;;;;;;8286021;28;20183;-70
2022/11/13 01:49:23;;;;;;;32.87;21.97;;;7.80;99.90;;;;;;8281646;28;20248;-71
2022/11/13 01:53:24;;;;;;;28.93;20.73;;;7.80;99.90;;;;;;8285827;28;20179;-71
2022/11/13 01:57:25;;;;;;;32.70;20.93;;;7.90;99.90;;;;;;8282678;28;20262;-71
2022/11/13 02:01:26;;;;;;;34.73;22.10;;;7.90;99.90;;;;;;8285856;28;20191;-70
2022/11/13 02:05:27;;;;;;;28.53;20.50;;;7.90;99.90;;;;;;8282725;28;20191;-71
2022/11/13 02:09:55;;;;;;;30.07;19.87;;;7.90;99.90;;;;;;8281013;28;20186;-71
2022/11/13 02:13:56;;;;;;;31.13;20.83;;;8.00;99.90;;;;;;8298626;28;20255;-70
2022/11/13 02:17:59;;;;;;;30.67;21.60;;;8.00;99.90;;;;;;8282360;28;20211;-71
2022/11/13 02:22:18;;;;;;;29.20;20.83;;;7.90;99.90;;;;;;8283561;28;20281;-71
2022/11/13 02:26:24;;;;;;;26.87;20.83;;;8.00;99.90;;;;;;8283168;28;20206;-71
2022/11/13 02:30:27;;;;;;;25.90;19.50;;;8.00;99.90;;;;;;8316766;28;20195;-71
2022/11/13 02:34:28;;;;;;;32.97;21.57;;;8.00;99.90;;;;;;8281448;28;20187;-70
2022/11/13 02:38:30;;;;;;;29.23;20.43;;;8.00;99.90;;;;;;8282325;28;20214;-70
2022/11/13 02:42:31;;;;;;;28.83;20.87;;;8.00;99.90;;;;;;8282189;28;20195;-70
2022/11/13 02:46:33;;;;;;;27.73;19.70;;;8.00;99.90;;;;;;8283064;28;20263;-71
2022/11/13 02:50:35;;;;;;;29.00;19.67;;;8.00;99.90;;;;;;8285150;28;20197;-70
2022/11/13 02:54:36;;;;;;;26.47;18.97;;;8.00;99.90;;;;;;8311839;28;20223;-71
2022/11/13 02:58:37;;;;;;;27.60;20.60;;;8.00;99.90;;;;;;8315344;28;20206;-70
2022/11/13 03:02:38;;;;;;;25.47;18.53;;;8.00;99.90;;;;;;8313146;28;20193;-71
2022/11/13 03:06:39;;;;;;;27.53;18.03;;;8.00;99.90;;;;;;8282696;28;20191;-71
2022/11/13 03:10:39;;;;;;;31.93;21.20;;;8.00;99.90;;;;;;8282650;28;20225;-71
2022/11/13 03:14:40;;;;;;;24.47;18.13;;;8.00;99.90;;;;;;8282438;28;20182;-71
2022/11/13 03:18:41;;;;;;;32.63;20.70;;;8.00;99.90;;;;;;8281637;28;20320;-71
2022/11/13 03:22:41;;;;;;;25.27;17.50;;;8.00;99.90;;;;;;8297879;28;20265;-71
2022/11/13 03:26:42;;;;;;;27.83;17.40;;;8.00;99.90;;;;;;8315369;28;20234;-71
2022/11/13 03:30:43;;;;;;;32.83;19.93;;;7.90;99.90;;;;;;8312416;28;20213;-70
2022/11/13 03:34:44;;;;;;;25.03;17.47;;;8.00;99.90;;;;;;8315018;28;20241;-70
2022/11/13 03:38:45;;;;;;;32.20;19.73;;;8.00;99.90;;;;;;8281148;28;20214;-71
2022/11/13 03:42:45;;;;;;;26.17;18.00;;;8.00;99.90;;;;;;8314843;28;20382;-70
2022/11/13 03:46:46;;;;;;;28.73;19.90;;;8.00;99.90;;;;;;8280703;28;20222;-71
2022/11/13 03:50:51;;;;;;;28.87;19.53;;;8.00;99.90;;;;;;8281235;28;20229;-74
2022/11/13 03:54:52;;;;;;;29.20;20.30;;;8.00;99.90;;;;;;8282876;28;20186;-71
2022/11/13 03:58:52;;;;;;;23.40;17.03;;;8.00;99.90;;;;;;8297805;28;20266;-71
2022/11/13 04:02:53;;;;;;;27.30;18.53;;;8.00;99.90;;;;;;8281864;28;20183;-70
2022/11/13 04:06:54;;;;;;;25.50;18.10;;;8.00;99.90;;;;;;8281174;28;20191;-72
2022/11/13 04:11:03;;;;;;;25.60;18.33;;;7.90;99.90;;;;;;8280611;28;20199;-71
2022/11/13 04:15:05;;;;;;;24.33;17.37;;;7.90;99.90;;;;;;8280312;28;20203;-71
2022/11/13 04:19:06;;;;;;;27.93;18.73;;;7.80;99.90;;;;;;8278570;28;20218;-70
2022/11/13 04:23:11;;;;;;;25.73;17.23;;;7.80;99.90;;;;;;8278459;28;20222;-70
2022/11/13 04:27:12;;;;;;;25.80;17.03;;;7.80;99.90;;;;;;8280899;28;20204;-70
2022/11/13 04:31:12;;;;;;;22.70;16.63;;;7.80;99.90;;;;;;8278639;28;20195;-70
2022/11/13 04:35:13;;;;;;;25.47;16.60;;;7.80;99.90;;;;;;8277855;28;20183;-71
2022/11/13 04:39:14;;;;;;;23.80;17.33;;;7.70;99.90;;;;;;8284149;28;20266;-71
2022/11/13 04:43:15;;;;;;;23.30;17.50;;;7.70;99.90;;;;;;8285813;28;20198;-70
2022/11/13 04:47:15;;;;;;;27.63;18.53;;;7.70;99.90;;;;;;8287627;28;20203;-71
2022/11/13 04:51:17;;;;;;;26.67;19.20;;;7.70;99.90;;;;;;8284719;28;20197;-70
2022/11/13 04:55:18;;;;;;;24.73;18.17;;;7.70;99.90;;;;;;8285692;28;20196;-70
2022/11/13 04:59:18;;;;;;;25.97;18.73;;;7.70;99.90;;;;;;8284452;28;20264;-71
2022/11/13 05:03:19;;;;;;;30.43;19.20;;;7.70;99.90;;;;;;8286372;28;20188;-73
2022/11/13 05:07:20;;;;;;;31.10;19.37;;;7.70;99.90;;;;;;8285140;28;20195;-70
2022/11/13 05:11:21;;;;;;;25.43;17.13;;;7.70;99.90;;;;;;8284807;28;20223;-69
2022/11/13 05:15:21;;;;;;;31.20;19.00;;;7.60;99.90;;;;;;8317332;28;20269;-70
2022/11/13 05:19:22;;;;;;;26.67;17.67;;;7.60;99.90;;;;;;8286297;28;20179;-71
2022/11/13 05:23:23;;;;;;;27.60;19.57;;;7.60;99.90;;;;;;8283583;28;20179;-70
2022/11/13 05:27:24;;;;;;;29.60;18.40;;;7.60;99.90;;;;;;8285840;28;20234;-71
2022/11/13 05:31:25;;;;;;;26.27;17.50;;;7.60;99.90;;;;;;8284489;28;20183;-71
2022/11/13 05:35:26;;;;;;;24.50;18.10;;;7.60;99.90;;;;;;8284103;28;20199;-70
2022/11/13 05:39:27;;;;;;;30.33;19.03;;;7.60;99.90;;;;;;8287220;28;20205;-70
2022/11/13 05:43:28;;;;;;;31.77;20.00;;;7.60;99.90;;;;;;8285166;28;20237;-71
2022/11/13 05:47:28;;;;;;;26.93;18.23;;;7.60;99.90;;;;;;8284126;28;20209;-70
2022/11/13 05:51:32;;;;;;;30.50;20.50;;;7.60;99.90;;;;;;8286420;28;20186;-70
2022/11/13 05:55:32;;;;;;;28.93;18.30;;;7.60;99.90;;;;;;8285116;28;20246;-72
2022/11/13 05:59:33;;;;;;;30.10;18.27;;;7.60;99.90;;;;;;8283538;28;20205;-71
2022/11/13 06:03:34;;;;;;;28.10;19.27;;;7.60;99.90;;;;;;8284417;28;20183;-71
2022/11/13 06:07:35;;;;;;;27.73;19.17;;;7.60;99.90;;;;;;8284028;28;20282;-71
2022/11/13 06:11:36;;;;;;;27.67;18.80;;;7.60;99.90;;;;;;8283863;28;20180;-69
2022/11/13 06:15:36;;;;;;;28.97;19.37;;;7.60;99.90;;;;;;8284726;28;20259;-69
2022/11/13 06:19:37;;;;;;;30.83;20.73;;;7.60;99.90;;;;;;8316278;28;20187;-70
2022/11/13 06:23:39;;;;;;;28.50;18.97;;;7.50;99.90;;;;;;8283296;28;20186;-74
2022/11/13 06:27:40;;;;;;;26.70;18.00;;;7.50;99.90;;;;;;8283908;28;20183;-70
2022/11/13 06:31:41;;;;;;;28.47;17.90;;;7.60;99.90;;;;;;8282596;28;20298;-70
2022/11/13 06:35:41;;;;;;;30.83;19.63;;;7.60;99.90;;;;;;8283128;28;20203;-70
2022/11/13 06:39:42;;;;;;;32.90;20.43;;;7.60;99.90;;;;;;8283913;28;20187;-70
2022/11/13 06:43:44;;;;;;;29.73;20.23;;;7.60;99.90;;;;;;8284600;28;20244;-70
2022/11/13 06:47:44;;;;;;;28.57;19.13;;;7.60;99.90;;;;;;8284301;28;20190;-71
2022/11/13 06:51:45;;;;;;;29.20;19.40;;;7.60;99.90;;;;;;8283163;28;20630;-70
2022/11/13 06:55:49;;;;;;;26.83;18.93;;;7.60;99.90;;;;;;8283472;28;20656;-71
2022/11/13 06:59:50;;;;;;;29.47;20.10;;;7.70;99.90;;;;;;8282397;28;20199;-71
2022/11/13 07:03:50;;;;;;;30.23;18.33;;;7.70;99.90;;;;;;8282855;28;20206;-70
2022/11/13 07:07:51;;;;;;;29.10;18.77;;;7.70;99.90;;;;;;8282221;28;20187;-71
2022/11/13 07:11:52;;;;;;;26.87;18.83;;;7.80;99.90;;;;;;8282141;28;20191;-69
2022/11/13 07:15:53;;;;;;;25.67;17.30;;;7.90;99.90;;;;;;8284330;28;20215;-71
2022/11/13 07:19:54;;;;;;;26.03;18.10;;;7.90;99.90;;;;;;8282824;28;20175;-70
2022/11/13 07:23:55;;;;;;;24.90;17.23;;;7.90;99.90;;;;;;8282426;28;20203;-68
2022/11/13 07:27:56;;;;;;;27.03;18.60;;;8.10;99.90;;;;;;8281613;28;20255;-71
2022/11/13 07:31:56;;;;;;;25.60;18.33;;;8.10;99.90;;;;;;8280924;28;20183;-70
2022/11/13 07:35:58;;;;;;;25.97;18.87;;;8.20;99.90;;;;;;8283052;28;20253;-70
2022/11/13 07:39:59;;;;;;;28.27;19.17;;;8.10;99.90;;;;;;8281466;28;20198;-70
2022/11/13 07:43:59;;;;;;;28.43;18.07;;;8.10;99.90;;;;;;8281991;28;20188;-74
2022/11/13 07:48:02;;;;;;;28.23;18.87;;;8.10;99.90;;;;;;8282067;28;20206;-70
2022/11/13 07:52:03;;;;;;;29.43;18.57;;;8.10;99.90;;;;;;8281054;28;20202;-70
2022/11/13 07:56:04;;;;;;;29.20;18.70;;;8.20;99.90;;;;;;8280615;28;20202;-70
2022/11/13 08:00:06;;;;;;;27.33;18.20;;;8.20;99.90;;;;;;8282431;28;20199;-70
2022/11/13 08:04:07;;;;;;;31.53;19.97;;;8.30;99.90;;;;;;8281804;28;20370;-69
2022/11/13 08:08:10;;;;;;;28.07;20.00;;;8.40;99.90;;;;;;8310347;28;20210;-69
2022/11/13 08:12:11;;;;;;;24.70;18.83;;;8.40;99.90;;;;;;8285126;28;20185;-70
2022/11/13 08:16:12;;;;;;;25.83;17.57;;;8.40;99.90;;;;;;8295867;28;20214;-70
2022/11/13 08:20:12;;;;;;;26.17;18.27;;;8.40;99.90;;;;;;8313592;28;20196;-70
2022/11/13 08:24:13;;;;;;;26.73;18.47;;;8.40;99.90;;;;;;8283843;28;20554;-70
2022/11/13 08:28:14;;;;;;;27.70;18.70;;;8.40;99.90;;;;;;8279450;28;20190;-70
2022/11/13 08:32:16;;;;;;;27.67;16.97;;;8.50;99.90;;;;;;8296482;28;20305;-70
2022/11/13 08:36:17;;;;;;;29.57;18.23;;;8.70;66.50;;;;;;8281957;28;20219;-70
2022/11/13 08:40:18;;;;;;;22.80;16.57;;;8.90;99.90;;;;;;8281621;28;20207;-69
2022/11/13 08:44:19;;;;;;;25.20;16.50;;;9.00;1.00;;;;;;8281204;28;20183;-69
2022/11/13 08:48:20;;;;;;;21.73;16.40;;;9.00;1.00;;;;;;8281290;28;20195;-69
2022/11/13 08:52:21;;;;;;;27.70;17.53;;;9.00;1.00;;;;;;8282623;28;20195;-71
2022/11/13 08:56:22;;;;;;;28.03;18.93;;;9.00;1.00;;;;;;8280137;28;20210;-70
2022/11/13 09:00:23;;;;;;;39.17;25.00;;;9.10;1.00;;;;;;8278867;28;20207;-70
2022/11/13 09:04:25;;;;;;;32.97;19.83;;;9.20;1.00;;;;;;8282786;28;20336;-68
2022/11/13 09:08:26;;;;;;;28.50;19.47;;;9.20;99.90;;;;;;8311964;28;20218;-70
2022/11/13 09:12:27;;;;;;;27.20;18.10;;;9.20;99.90;;;;;;8278324;28;20218;-71
2022/11/13 09:16:28;;;;;;;29.63;18.60;;;9.20;99.90;;;;;;8295619;28;20223;-71
2022/11/13 09:20:30;;;;;;;22.97;15.23;;;9.40;99.90;;;;;;8278025;28;20184;-70
2022/11/13 09:24:31;;;;;;;28.07;17.73;;;9.50;99.90;;;;;;8283960;28;20186;-70
2022/11/13 09:28:32;;;;;;;23.53;16.03;;;9.70;1.00;;;;;;8281573;28;20215;-72
2022/11/13 09:32:32;;;;;;;21.10;15.83;;;9.70;1.00;;;;;;8318309;28;20198;-71
2022/11/13 09:36:33;;;;;;;31.57;21.97;;;10.00;1.00;;;;;;8283904;28;20247;-71
2022/11/13 09:40:45;;;;;;;22.70;15.93;;;10.20;99.90;;;;;;8287221;28;20190;-70
2022/11/13 09:44:58;;;;;;;32.23;21.07;;;10.40;19.40;;;;;;8299911;28;20592;-71
2022/11/13 09:49:24;;;;;;;28.27;18.10;;;10.50;1.00;;;;;;8285367;28;20204;-70
2022/11/13 09:53:26;;;;;;;19.63;14.77;;;10.70;1.00;;;;;;8285389;28;20281;-72
2022/11/13 09:57:38;;;;;;;25.97;17.43;;;10.60;99.90;;;;;;8286509;28;20214;-70
2022/11/13 10:01:52;;;;;;;35.63;23.73;;;10.70;99.90;;;;;;8285261;28;20187;-71
2022/11/13 10:06:18;;;;;;;33.93;23.00;;;10.80;99.90;;;;;;8315401;28;20318;-71
2022/11/13 10:10:21;;;;;;;31.03;20.93;;;10.90;99.90;;;;;;8282353;28;20249;-71
2022/11/13 10:14:28;;;;;;;22.50;16.27;;;10.90;99.90;;;;;;8283695;28;20197;-73
2022/11/13 10:18:33;;;;;;;22.40;15.27;;;10.80;99.90;;;;;;8285023;28;20233;-70
2022/11/13 10:23:42;;;;;;;21.97;15.23;;;10.80;99.90;;;;;;8285839;28;20191;-70
2022/11/13 10:27:49;;;;;;;28.10;16.83;;;10.90;99.90;;;;;;8283086;28;20207;-73
2022/11/13 10:31:51;;;;;;;24.23;15.70;;;10.90;99.90;;;;;;8281057;28;20241;-71
2022/11/13 10:36:24;;;;;;;20.30;15.30;;;10.90;99.90;;;;;;8317201;28;20202;-73
2022/11/13 10:40:31;;;;;;;27.17;18.27;;;11.10;99.90;;;;;;8282741;28;20191;-70
2022/11/13 10:44:34;;;;;;;23.00;16.27;;;11.30;94.50;;;;;;8283264;28;20187;-70
2022/11/13 10:48:36;;;;;;;29.67;20.07;;;11.40;91.20;;;;;;8282950;28;20178;-70
2022/11/13 10:52:46;;;;;;;27.23;18.23;;;11.50;27.90;;;;;;8284837;28;20441;-70
2022/11/13 10:57:00;;;;;;;27.00;19.83;;;11.60;99.90;;;;;;8282902;28;20200;-70
2022/11/13 11:01:00;;;;;;;22.90;16.33;;;11.70;1.00;;;;;;8285918;28;20198;-70
2022/11/13 11:05:04;;;;;;;22.93;16.97;;;11.80;1.00;;;;;;8299433;28;20187;-69
2022/11/13 11:09:28;;;;;;;26.97;19.23;;;12.00;1.00;;;;;;8282310;28;20183;-69
2022/11/13 11:13:29;;;;;;;22.57;16.03;;;12.00;1.00;;;;;;8283522;28;20186;-69
2022/11/13 11:17:49;;;;;;;30.10;19.40;;;12.00;1.00;;;;;;8281848;28;20215;-69
2022/11/13 11:21:55;;;;;;;35.17;21.83;;;11.80;1.00;;;;;;8317382;28;20180;-70
2022/11/13 11:25:58;;;;;;;27.23;19.17;;;11.70;39.40;;;;;;8284617;28;20223;-70
2022/11/13 11:30:36;;;;;;;32.53;21.97;;;11.70;30.00;;;;;;8281316;28;20198;-70
2022/11/13 11:34:49;;;;;;;31.57;21.13;;;11.60;7.60;;;;;;8290557;28;20238;-69
2022/11/13 11:39:04;;;;;;;28.03;19.23;;;11.60;45.60;;;;;;8283413;28;20208;-69
2022/11/13 11:43:25;;;;;;;21.67;17.03;;;11.60;1.00;;;;;;8281524;28;20237;-69
2022/11/13 11:47:27;;;;;;;24.67;17.53;;;11.40;76.20;;;;;;8313365;28;20221;-69
2022/11/13 11:51:40;;;;;;;26.33;17.13;;;11.20;99.90;;;;;;8314795;28;20202;-69
2022/11/13 11:55:41;;;;;;;42.90;27.80;;;11.10;99.90;;;;;;8281889;28;20210;-69
2022/11/13 12:00:12;;;;;;;30.67;21.23;;;11.20;99.90;;;;;;8282977;28;20227;-70
2022/11/13 12:04:28;;;;;;;26.80;17.63;;;11.20;99.90;;;;;;8283484;28;20263;-71
2022/11/13 12:08:55;;;;;;;44.20;28.30;;;11.10;99.90;;;;;;8314066;28;20260;-71
2022/11/13 12:13:00;;;;;;;28.57;18.53;;;11.00;99.90;;;;;;8282831;28;20201;-70
2022/11/13 12:17:04;;;;;;;28.17;20.13;;;11.00;99.90;;;;;;8296370;28;20345;-70
2022/11/13 12:21:10;;;;;;;28.10;19.13;;;10.80;99.90;;;;;;8313542;28;20787;-69
2022/11/13 12:25:28;;;;;;;31.83;22.13;;;10.70;99.90;;;;;;8313779;28;20186;-69
2022/11/13 12:29:43;;;;;;;40.90;30.83;;;10.60;1.00;;;;;;8281694;28;20198;-70
2022/11/13 12:34:01;;;;;;;29.77;19.73;;;10.60;1.00;;;;;;8282231;28;20226;-70
2022/11/13 12:38:17;;;;;;;29.20;20.13;;;10.50;1.00;;;;;;8277917;28;20218;-69
2022/11/13 12:42:44;;;;;;;30.00;20.03;;;10.40;1.00;;;;;;8312791;28;20213;-69
2022/11/13 12:46:47;;;;;;;27.37;18.53;;;10.30;19.80;;;;;;8279493;28;20276;-69
2022/11/13 12:50:59;;;;;;;27.27;19.03;;;10.10;99.90;;;;;;8311869;28;20193;-70
2022/11/13 12:55:23;;;;;;;35.73;23.27;;;10.00;99.90;;;;;;8281862;28;20197;-71
2022/11/13 12:59:36;;;;;;;33.17;21.27;;;10.10;99.90;;;;;;8283443;28;20211;-70
2022/11/13 13:03:48;;;;;;;28.27;19.80;;;10.20;99.90;;;;;;8288124;28;20196;-69
2022/11/13 13:08:16;;;;;;;35.23;19.33;;;10.30;99.90;;;;;;8287546;28;20190;-70
2022/11/13 13:12:42;;;;;;;31.23;20.60;;;10.50;99.90;;;;;;8286934;28;20221;-70
2022/11/13 13:16:43;;;;;;;30.33;21.03;;;10.50;26.30;;;;;;8286505;28;20626;-70
2022/11/13 13:20:56;;;;;;;34.07;23.33;;;10.50;25.90;;;;;;8287725;28;20189;-69
2022/11/13 13:25:06;;;;;;;32.63;21.57;;;10.40;99.90;;;;;;8302899;28;20177;-69
2022/11/13 13:29:20;;;;;;;29.30;20.23;;;10.40;99.90;;;;;;8288682;28;20226;-70
2022/11/13 13:33:46;;;;;;;35.50;22.80;;;10.40;99.90;;;;;;8287171;28;20185;-69
2022/11/13 13:37:54;;;;;;;45.70;27.57;;;10.40;99.90;;;;;;8299879;28;20305;-69
2022/11/13 13:42:08;;;;;;;55.90;30.33;;;10.30;99.90;;;;;;8316434;28;20188;-70
2022/11/13 13:46:28;;;;;;;50.70;29.10;;;10.10;99.90;;;;;;8317976;28;20190;-69
2022/11/13 13:50:38;;;;;;;41.27;25.57;;;10.00;77.70;;;;;;8284186;28;20181;-69
2022/11/13 13:54:40;;;;;;;43.17;26.47;;;9.80;99.90;;;;;;8285472;28;20358;-71
2022/11/13 13:58:41;;;;;;;45.20;26.17;;;9.80;99.90;;;;;;8282723;28;20216;-70
2022/11/13 14:02:48;;;;;;;46.13;28.83;;;9.70;99.90;;;;;;8317036;28;20180;-70
2022/11/13 14:06:59;;;;;;;46.63;27.97;;;9.70;1.00;;;;;;8283039;28;20593;-70
2022/11/13 14:11:15;;;;;;;48.40;28.07;;;9.60;1.00;;;;;;8299331;28;20199;-70
2022/11/13 14:15:26;;;;;;;54.73;31.60;;;9.60;99.90;;;;;;8314008;28;20243;-70
2022/11/13 14:19:27;;;;;;;46.10;28.77;;;9.50;1.00;;;;;;8283326;28;20201;-69
2022/11/13 14:23:40;;;;;;;53.03;31.53;;;9.50;99.90;;;;;;8283646;28;20185;-70
2022/11/13 14:27:40;;;;;;;54.50;31.10;;;9.30;99.90;;;;;;8298746;28;20184;-70
2022/11/13 14:31:41;;;;;;;52.30;30.70;;;9.20;1.00;;;;;;8282705;28;20231;-70
2022/11/13 14:35:51;;;;;;;58.80;32.90;;;9.00;81.80;;;;;;8283220;28;20506;-70
2022/11/13 14:39:54;;;;;;;50.30;30.43;;;8.70;20.40;;;;;;8282238;28;20204;-71
2022/11/13 14:43:57;;;;;;;55.43;32.53;;;8.40;99.90;;;;;;8283109;28;20183;-69
2022/11/13 14:48:03;;;;;;;58.63;34.67;;;8.30;99.90;;;;;;8283033;28;20187;-70
2022/11/13 14:52:05;;;;;;;62.93;34.60;;;8.10;1.00;;;;;;8284177;28;20195;-70
2022/11/13 14:56:09;;;;;;;59.60;34.37;;;7.90;99.90;;;;;;8283422;28;20260;-68
2022/11/13 15:00:24;;;;;;;67.23;34.97;;;7.60;1.00;;;;;;8275536;28;20350;-70
2022/11/13 15:04:25;;;;;;;59.33;32.10;;;7.30;99.90;;;;;;8283517;28;20205;-69
2022/11/13 15:08:27;;;;;;;62.57;33.40;;;7.20;1.00;;;;;;8315054;28;20187;-71
2022/11/13 15:12:27;;;;;;;54.30;30.80;;;7.00;5.00;;;;;;8280987;28;20332;-70
2022/11/13 15:16:30;;;;;;;52.70;30.63;;;6.70;17.80;;;;;;8280248;28;20214;-70
2022/11/13 15:20:31;;;;;;;64.77;34.33;;;6.60;78.60;;;;;;8281276;28;20191;-70
2022/11/13 15:24:31;;;;;;;74.23;38.63;;;6.50;99.90;;;;;;8282001;28;20183;-69
2022/11/13 15:28:32;;;;;;;68.87;33.77;;;6.50;99.90;;;;;;8281145;28;20195;-69
2022/11/13 15:32:33;;;;;;;68.83;36.33;;;6.60;99.90;;;;;;8281605;28;20202;-69
2022/11/13 15:36:34;;;;;;;69.37;36.23;;;6.60;99.90;;;;;;8283487;28;20285;-68
2022/11/13 15:40:37;;;;;;;71.43;34.77;;;6.70;99.90;;;;;;8282730;28;20188;-70
2022/11/13 15:44:37;;;;;;;68.43;34.30;;;6.70;99.90;;;;;;8279159;28;20242;-70
2022/11/13 15:48:38;;;;;;;71.87;36.23;;;6.70;99.90;;;;;;8283650;28;20185;-69
2022/11/13 15:52:42;;;;;;;72.73;36.47;;;6.70;99.90;;;;;;8282261;28;20183;-69
2022/11/13 15:56:45;;;;;;;70.07;36.47;;;6.70;99.90;;;;;;8282303;28;20215;-69
2022/11/13 16:00:46;;;;;;;62.83;33.03;;;6.70;99.90;;;;;;8283148;28;20186;-70
2022/11/13 16:04:47;;;;;;;67.77;34.73;;;6.70;99.90;;;;;;8315245;28;20179;-70
2022/11/13 16:08:49;;;;;;;68.07;34.97;;;6.70;99.90;;;;;;8281520;28;20185;-71
2022/11/13 16:12:50;;;;;;;61.60;32.23;;;6.70;99.90;;;;;;8279992;28;20187;-70
2022/11/13 16:16:52;;;;;;;72.83;38.33;;;6.70;99.90;;;;;;8282039;28;20214;-69
2022/11/13 16:20:52;;;;;;;73.97;40.07;;;6.60;99.90;;;;;;8280852;28;20179;-70
2022/11/13 16:24:53;;;;;;;70.33;34.60;;;6.60;99.90;;;;;;8284263;28;20171;-70
2022/11/13 16:28:54;;;;;;;87.83;45.53;;;6.60;99.90;;;;;;8283796;28;20183;-69
2022/11/13 16:32:55;;;;;;;76.63;36.37;;;6.60;99.90;;;;;;8283372;28;20273;-69
2022/11/13 16:36:56;;;;;;;71.07;33.83;;;6.50;81.50;;;;;;8284756;28;20221;-69
2022/11/13 16:40:57;;;;;;;71.20;34.07;;;6.40;99.90;;;;;;8288948;28;20190;-70
2022/11/13 16:44:58;;;;;;;76.07;35.53;;;6.40;99.90;;;;;;8288012;28;20193;-69
2022/11/13 16:48:59;;;;;;;85.03;36.87;;;6.40;99.90;;;;;;8287902;28;20183;-70
2022/11/13 16:53:00;;;;;;;75.97;35.10;;;6.30;99.90;;;;;;8287309;28;20206;-69
2022/11/13 16:57:01;;;;;;;81.40;36.00;;;6.30;99.90;;;;;;8318042;28;20215;-70
2022/11/13 17:01:03;;;;;;;75.50;34.37;;;6.30;99.90;;;;;;8285246;28;20427;-70
2022/11/13 17:05:04;;;;;;;85.60;37.47;;;6.20;99.90;;;;;;8285351;28;20539;-69
2022/11/13 17:09:05;;;;;;;73.93;33.60;;;6.20;99.90;;;;;;8287971;28;20195;-68
2022/11/13 17:13:08;;;;;;;70.17;33.07;;;6.10;99.90;;;;;;8285829;28;20187;-69
2022/11/13 17:17:12;;;;;;;77.50;34.57;;;6.10;99.90;;;;;;8278105;28;20240;-69
2022/11/13 17:21:13;;;;;;;83.07;37.77;;;6.00;99.90;;;;;;8288696;28;20167;-69
2022/11/13 17:25:16;;;;;;;83.03;39.23;;;6.10;99.90;;;;;;8286742;28;20205;-69
2022/11/13 17:29:16;;;;;;;96.83;41.20;;;6.00;99.90;;;;;;8300233;28;20183;-70
2022/11/13 17:33:17;;;;;;;172.80;64.17;;;6.10;99.90;;;;;;8284835;28;20183;-69
2022/11/13 17:37:18;;;;;;;243.10;113.67;;;6.10;99.90;;;;;;8287676;28;20207;-70
2022/11/13 17:41:19;;;;;;;97.90;42.50;;;6.20;99.90;;;;;;8286670;28;20183;-70
2022/11/13 17:45:23;;;;;;;108.73;43.53;;;6.20;99.90;;;;;;8284873;28;20183;-68
2022/11/13 17:49:24;;;;;;;123.07;47.10;;;6.20;99.90;;;;;;8303692;28;20195;-69
2022/11/13 17:53:25;;;;;;;113.20;43.23;;;6.10;99.90;;;;;;8285449;28;20282;-70
2022/11/13 17:57:26;;;;;;;127.67;54.20;;;6.10;99.90;;;;;;8286486;28;20245;-70
2022/11/13 18:01:26;;;;;;;107.93;43.23;;;6.10;99.90;;;;;;8317877;28;20225;-68
2022/11/13 18:05:27;;;;;;;127.20;46.10;;;6.10;99.90;;;;;;8285426;28;20184;-69
2022/11/13 18:09:28;;;;;;;118.17;42.77;;;6.10;99.90;;;;;;8282674;28;20350;-70
2022/11/13 18:13:29;;;;;;;110.27;41.10;;;6.10;99.90;;;;;;8284788;28;20190;-70
2022/11/13 18:17:30;;;;;;;106.73;41.30;;;6.10;99.90;;;;;;8299375;28;20260;-68
2022/11/13 18:21:33;;;;;;;95.27;40.03;;;6.10;99.90;;;;;;8285221;28;20229;-70
2022/11/13 18:25:35;;;;;;;91.23;38.97;;;6.10;99.90;;;;;;8281862;28;20180;-70
2022/11/13 18:29:36;;;;;;;113.97;44.00;;;6.10;99.90;;;;;;8281140;28;20198;-70
2022/11/13 18:33:37;;;;;;;111.37;46.13;;;6.10;99.90;;;;;;8282292;28;20187;-70
2022/11/13 18:37:38;;;;;;;100.10;40.50;;;6.10;99.90;;;;;;8281254;28;20210;-70
2022/11/13 18:41:38;;;;;;;96.00;41.70;;;6.10;99.90;;;;;;8281006;28;20171;-70
2022/11/13 18:45:39;;;;;;;113.37;43.87;;;6.10;99.90;;;;;;8284398;28;20277;-70
2022/11/13 18:49:40;;;;;;;124.73;49.37;;;6.10;99.90;;;;;;8282941;28;20179;-69
2022/11/13 18:53:44;;;;;;;106.03;43.27;;;6.20;99.90;;;;;;8283670;28;20292;-70
2022/11/13 18:57:45;;;;;;;116.20;47.30;;;6.20;99.90;;;;;;8283676;28;20211;-70
2022/11/13 19:01:45;;;;;;;109.53;45.43;;;6.20;99.90;;;;;;8285132;28;20269;-70
2022/11/13 19:05:46;;;;;;;126.17;50.13;;;6.20;99.90;;;;;;8317460;28;20183;-69
2022/11/13 19:09:49;;;;;;;118.93;45.87;;;6.20;99.90;;;;;;8284787;28;20190;-70
2022/11/13 19:13:50;;;;;;;118.50;44.70;;;6.20;99.90;;;;;;8282535;28;20196;-70
2022/11/13 19:17:50;;;;;;;100.67;42.47;;;6.20;99.90;;;;;;8280177;28;20211;-70
2022/11/13 19:21:51;;;;;;;110.87;44.60;;;6.20;99.90;;;;;;8281865;28;20207;-70
2022/11/13 19:25:52;;;;;;;119.07;45.97;;;6.20;99.90;;;;;;8280137;28;20241;-71
2022/11/13 19:29:53;;;;;;;105.13;42.47;;;6.30;99.90;;;;;;8282355;28;20179;-70
2022/11/13 19:33:55;;;;;;;105.10;41.83;;;6.20;99.90;;;;;;8281969;28;20179;-71
2022/11/13 19:37:57;;;;;;;120.57;45.40;;;6.20;99.90;;;;;;8283937;28;20235;-68
2022/11/13 19:41:58;;;;;;;110.80;45.27;;;6.10;99.90;;;;;;8283048;28;20186;-70
2022/11/13 19:46:05;;;;;;;108.50;43.40;;;6.10;99.90;;;;;;8283517;28;20179;-70
2022/11/13 19:50:06;;;;;;;105.60;42.30;;;6.10;99.90;;;;;;8282367;28;20369;-69
2022/11/13 19:54:08;;;;;;;110.10;47.33;;;6.10;99.90;;;;;;8317069;28;20186;-70
2022/11/13 19:58:08;;;;;;;103.00;44.50;;;6.10;99.90;;;;;;8293418;28;20220;-70
2022/11/13 20:02:09;;;;;;;111.60;47.20;;;6.20;99.90;;;;;;8278509;28;20292;-70
2022/11/13 20:06:13;;;;;;;108.73;46.43;;;6.20;99.90;;;;;;8282409;28;20281;-70
2022/11/13 20:10:13;;;;;;;110.30;44.77;;;6.20;99.90;;;;;;8279927;28;20585;-70
2022/11/13 20:14:15;;;;;;;108.80;44.67;;;6.20;99.90;;;;;;8311562;28;20206;-70
2022/11/13 20:18:16;;;;;;;98.00;40.30;;;6.20;99.90;;;;;;8280183;28;20246;-70
2022/11/13 20:22:18;;;;;;;106.23;43.33;;;6.20;99.90;;;;;;8280022;28;20210;-70
2022/11/13 20:26:19;;;;;;;106.83;46.87;;;6.30;99.90;;;;;;8281538;28;20190;-69
2022/11/13 20:30:20;;;;;;;105.23;45.10;;;6.30;99.90;;;;;;8277496;28;20195;-70
2022/11/13 20:34:21;;;;;;;106.53;44.87;;;6.30;99.90;;;;;;8282540;28;20191;-70
2022/11/13 20:38:22;;;;;;;110.97;46.43;;;6.30;99.90;;;;;;8279473;28;20221;-70
2022/11/13 20:42:23;;;;;;;96.80;42.40;;;6.30;99.90;;;;;;8279533;28;20183;-70
2022/11/13 20:46:24;;;;;;;106.33;46.40;;;6.30;99.90;;;;;;8311313;28;20191;-70